Worthington, Kentucky
Current Conditions -  °F | °C
As of 3:15 PM on Saturday 25 Oct 2014 (Local Time) from KDWU Reporting Station
Broken Clouds Broken Clouds  
Wind Chill: 68°   Ceiling: 3300
Heat Index: 68°   Visibility: 10mi
Dew Point: 50°   Wind: 12mph
Humidity: 52%   Direction: 270°W
Pressure: 29.92"   Gusts: NA
Location:  38.55°N, 82.72°W
Report Text: KDWU 251915Z AUTO 27010KT 10SM BKN033 20/10 A2992 RMK AO1
Loading
Personal Weather Stations






























Interactive Weather Map
Tropical Storm Tracking
New forecast layout! Learn more

10-Day Weather Forecast

Advertisements
Track Severe Weather on mobile